createdAt,value
2023-05-14T00:00:56.769Z,6.59
2023-05-14T00:01:58.369Z,6.58
2023-05-14T00:03:00.037Z,6.56
2023-05-14T00:04:01.744Z,6.54
2023-05-14T00:05:03.249Z,6.54
2023-05-14T00:06:05.076Z,6.52
2023-05-14T00:07:06.495Z,6.49
2023-05-14T00:08:08.018Z,6.47
2023-05-14T00:09:09.452Z,6.46
2023-05-14T00:10:10.851Z,6.44
2023-05-14T00:11:12.307Z,6.45
2023-05-14T00:12:13.738Z,6.43
2023-05-14T00:13:15.164Z,6.42
2023-05-14T00:14:16.625Z,6.39
2023-05-14T00:15:18.058Z,6.38
2023-05-14T00:16:19.571Z,6.36
2023-05-14T00:17:21.110Z,6.35
2023-05-14T00:18:22.568Z,6.33
2023-05-14T00:19:23.991Z,6.32
2023-05-14T00:20:25.613Z,6.30
2023-05-14T00:21:27.301Z,6.29
2023-05-14T00:22:28.829Z,6.29
2023-05-14T00:23:30.254Z,6.28
2023-05-14T00:24:31.738Z,6.27
2023-05-14T00:25:33.213Z,6.24
2023-05-14T00:26:34.725Z,6.25
2023-05-14T00:27:36.244Z,6.24
2023-05-14T00:28:37.685Z,6.23
2023-05-14T00:29:39.195Z,6.23
2023-05-14T00:30:40.642Z,6.21
2023-05-14T00:31:42.126Z,6.20
2023-05-14T00:32:43.662Z,6.19
2023-05-14T00:33:45.176Z,6.20
2023-05-14T00:34:46.619Z,6.18
2023-05-14T00:35:48.095Z,6.17
2023-05-14T00:36:49.553Z,6.17
2023-05-14T00:37:51.018Z,6.17
2023-05-14T00:38:52.450Z,6.16
2023-05-14T00:39:53.892Z,6.15
2023-05-14T00:40:55.326Z,6.15
2023-05-14T00:41:56.755Z,6.14
2023-05-14T00:42:58.224Z,6.13
2023-05-14T00:43:59.645Z,6.14
2023-05-14T00:45:01.127Z,6.13
2023-05-14T00:46:02.572Z,6.13
2023-05-14T00:47:04.124Z,6.11
2023-05-14T00:48:05.616Z,6.11
2023-05-14T00:49:07.062Z,6.12
2023-05-14T00:50:08.805Z,6.12
2023-05-14T00:51:10.268Z,6.11
2023-05-14T00:52:11.757Z,6.11
2023-05-14T00:53:13.302Z,6.10
2023-05-14T00:54:14.777Z,6.09
2023-05-14T00:55:16.221Z,6.10
2023-05-14T00:56:17.707Z,6.09
2023-05-14T00:57:19.182Z,6.09
2023-05-14T00:58:20.707Z,6.07
2023-05-14T00:59:22.157Z,6.08
2023-05-14T01:00:23.903Z,6.08
2023-05-14T01:01:25.592Z,6.07
2023-05-14T01:02:27.160Z,6.07
2023-05-14T01:03:28.825Z,6.08
2023-05-14T01:04:30.477Z,6.08
2023-05-14T01:05:32.074Z,6.07
2023-05-14T01:06:33.611Z,6.07
2023-05-14T01:07:35.176Z,6.08
2023-05-14T01:08:36.704Z,6.07
2023-05-14T01:09:38.280Z,6.07
2023-05-14T01:10:39.777Z,6.07
2023-05-14T01:11:41.336Z,6.07
2023-05-14T01:12:42.820Z,6.08
2023-05-14T01:13:44.420Z,6.06
2023-05-14T01:14:45.953Z,6.07
2023-05-14T01:15:47.461Z,6.06
2023-05-14T01:16:49.042Z,6.06
2023-05-14T01:17:50.555Z,6.06
2023-05-14T01:18:52.313Z,6.06
2023-05-14T01:19:53.806Z,6.07
2023-05-14T01:20:55.296Z,6.07
2023-05-14T01:21:56.781Z,6.06
2023-05-14T01:22:58.298Z,6.06
2023-05-14T01:23:59.846Z,6.06
2023-05-14T01:25:01.309Z,6.07
2023-05-14T01:26:02.737Z,6.06
2023-05-14T01:27:04.212Z,6.07
2023-05-14T01:28:05.697Z,6.07
2023-05-14T01:29:07.185Z,6.06
2023-05-14T01:30:08.690Z,6.07
2023-05-14T01:31:10.231Z,6.07
2023-05-14T01:32:11.752Z,6.06
2023-05-14T01:33:13.258Z,6.06
2023-05-14T01:34:14.690Z,6.05
2023-05-14T01:35:16.197Z,6.07
2023-05-14T01:36:17.642Z,6.07
2023-05-14T01:37:19.081Z,6.06
2023-05-14T01:38:20.572Z,6.06
2023-05-14T01:39:22.031Z,6.07
2023-05-14T01:40:23.724Z,6.06
2023-05-14T01:41:25.385Z,6.06
2023-05-14T01:42:26.827Z,6.07
2023-05-14T01:43:28.343Z,6.06
2023-05-14T01:44:31.251Z,6.06
2023-05-14T01:45:32.706Z,6.07
2023-05-14T01:46:34.380Z,6.07
2023-05-14T01:47:35.973Z,6.07
2023-05-14T01:48:37.434Z,6.07
2023-05-14T01:49:38.932Z,6.07
2023-05-14T01:50:40.384Z,6.07
2023-05-14T01:51:41.833Z,6.06
2023-05-14T01:52:43.321Z,6.08
2023-05-14T01:53:44.867Z,6.07
2023-05-14T01:54:46.389Z,6.06
2023-05-14T01:55:47.873Z,6.07
2023-05-14T01:56:49.338Z,6.07
2023-05-14T01:57:50.795Z,6.06
2023-05-14T01:58:52.248Z,6.06
2023-05-14T01:59:53.792Z,6.06
2023-05-14T02:00:55.256Z,6.05
2023-05-14T02:01:56.846Z,6.05
2023-05-14T02:02:58.617Z,6.05
2023-05-14T02:04:00.243Z,6.04
2023-05-14T02:05:01.794Z,6.05
2023-05-14T02:06:03.315Z,6.04
2023-05-14T02:07:04.802Z,6.05
2023-05-14T02:08:06.303Z,6.03
2023-05-14T02:09:07.765Z,6.02
2023-05-14T02:10:09.334Z,6.02
2023-05-14T02:11:10.804Z,6.02
2023-05-14T02:12:12.242Z,6.03
2023-05-14T02:13:14.071Z,6.02
2023-05-14T02:14:15.552Z,6.01
2023-05-14T02:15:17.036Z,6.00
2023-05-14T02:16:18.534Z,5.98
2023-05-14T02:17:20.047Z,5.99
2023-05-14T02:18:21.575Z,5.97
2023-05-14T02:19:23.214Z,5.98
2023-05-14T02:20:24.870Z,5.98
2023-05-14T02:21:26.424Z,5.97
2023-05-14T02:22:27.880Z,5.96
2023-05-14T02:23:38.229Z,5.95
2023-05-14T02:24:43.255Z,5.96
2023-05-14T02:25:44.696Z,5.95
2023-05-14T02:26:46.212Z,5.94
2023-05-14T02:27:47.674Z,5.94
2023-05-14T02:28:49.145Z,5.93
2023-05-14T02:29:50.666Z,5.92
2023-05-14T02:30:52.129Z,5.93
2023-05-14T02:31:53.642Z,5.92
2023-05-14T02:32:55.250Z,5.92
2023-05-14T02:33:56.837Z,5.91
2023-05-14T02:34:58.436Z,5.90
2023-05-14T02:35:59.910Z,5.91
2023-05-14T02:37:01.354Z,5.90
2023-05-14T02:38:02.905Z,5.89
2023-05-14T02:39:04.444Z,5.88
2023-05-14T02:40:05.921Z,5.88
2023-05-14T02:41:07.350Z,5.89
2023-05-14T02:42:08.890Z,5.89
2023-05-14T02:43:10.374Z,5.88
2023-05-14T02:44:11.956Z,5.86
2023-05-14T02:45:13.531Z,5.86
2023-05-14T02:46:15.030Z,5.86
2023-05-14T02:47:16.558Z,5.86
2023-05-14T02:48:18.000Z,5.86
2023-05-14T02:49:19.562Z,5.85
2023-05-14T02:50:21.208Z,5.84
2023-05-14T02:51:22.980Z,5.84
2023-05-14T02:52:24.581Z,5.84
2023-05-14T02:53:27.478Z,5.83
2023-05-14T02:54:29.103Z,5.83
2023-05-14T02:55:30.637Z,5.82
2023-05-14T02:56:32.162Z,5.82
2023-05-14T02:57:33.730Z,5.81
2023-05-14T02:58:35.288Z,5.80
2023-05-14T02:59:36.766Z,5.80
2023-05-14T03:00:38.790Z,5.79
2023-05-14T03:01:40.511Z,5.78
2023-05-14T03:02:42.474Z,5.77
2023-05-14T03:03:44.459Z,5.76
2023-05-14T03:04:46.338Z,5.76
2023-05-14T03:05:47.939Z,5.75
2023-05-14T03:06:49.443Z,5.73
2023-05-14T03:07:50.935Z,5.73
2023-05-14T03:08:52.471Z,5.74
2023-05-14T03:09:54.047Z,5.72
2023-05-14T03:10:55.585Z,5.70
2023-05-14T03:11:57.072Z,5.69
2023-05-14T03:12:58.513Z,5.67
2023-05-14T03:13:59.970Z,5.66
2023-05-14T03:15:01.928Z,5.65
2023-05-14T03:16:03.442Z,5.63
2023-05-14T03:17:05.073Z,5.63
2023-05-14T03:18:06.701Z,5.61
2023-05-14T03:19:08.313Z,5.60
2023-05-14T03:20:09.836Z,5.60
2023-05-14T03:21:11.295Z,5.58
2023-05-14T03:22:12.744Z,5.57
2023-05-14T03:23:14.241Z,5.56
2023-05-14T03:24:15.793Z,5.53
2023-05-14T03:25:17.342Z,5.53
2023-05-14T03:26:18.795Z,5.53
2023-05-14T03:27:20.417Z,5.50
2023-05-14T03:28:21.951Z,5.49
2023-05-14T03:29:23.467Z,5.48
2023-05-14T03:30:25.114Z,5.48
2023-05-14T03:31:26.941Z,5.45
2023-05-14T03:32:28.445Z,5.44
2023-05-14T03:33:29.964Z,5.44
2023-05-14T03:34:31.407Z,5.41
2023-05-14T03:35:32.952Z,5.40
2023-05-14T03:36:34.450Z,5.39
2023-05-14T03:37:35.953Z,5.38
2023-05-14T03:38:37.458Z,5.37
2023-05-14T03:39:38.944Z,5.37
2023-05-14T03:40:40.443Z,5.35
2023-05-14T03:41:41.919Z,5.34
2023-05-14T03:42:43.462Z,5.33
2023-05-14T03:43:44.937Z,5.32
2023-05-14T03:44:46.384Z,5.30
2023-05-14T03:45:47.862Z,5.29
2023-05-14T03:46:49.311Z,5.28
2023-05-14T03:47:50.795Z,5.27
2023-05-14T03:48:52.334Z,5.25
2023-05-14T03:49:53.795Z,5.23
2023-05-14T03:50:55.291Z,5.24
2023-05-14T03:51:56.750Z,5.20
2023-05-14T03:52:58.161Z,5.21
2023-05-14T03:53:59.601Z,5.20
2023-05-14T03:55:01.028Z,5.18
2023-05-14T03:56:02.504Z,5.16
2023-05-14T03:57:03.985Z,5.16
2023-05-14T03:58:05.460Z,5.15
2023-05-14T03:59:06.892Z,5.14
2023-05-14T04:00:08.378Z,5.13
2023-05-14T04:01:09.834Z,5.13
2023-05-14T04:02:11.329Z,5.11
2023-05-14T04:03:12.867Z,5.11
2023-05-14T04:04:14.475Z,5.10
2023-05-14T04:05:16.001Z,5.08
2023-05-14T04:06:17.541Z,5.08
2023-05-14T04:07:19.003Z,5.06
2023-05-14T04:08:20.423Z,5.06
2023-05-14T04:09:21.832Z,5.06
2023-05-14T04:10:23.525Z,5.04
2023-05-14T04:11:25.523Z,5.04
2023-05-14T04:12:26.932Z,5.03
2023-05-14T04:13:28.377Z,5.02
2023-05-14T04:14:29.857Z,5.01
2023-05-14T04:15:31.257Z,5.01
2023-05-14T04:16:32.755Z,4.99
2023-05-14T04:17:35.056Z,4.99
2023-05-14T04:18:36.665Z,4.99
2023-05-14T04:19:38.084Z,4.99
2023-05-14T04:20:39.513Z,4.99
2023-05-14T04:21:40.960Z,4.98
2023-05-14T04:22:42.483Z,4.98
2023-05-14T04:23:43.904Z,4.97
2023-05-14T04:24:45.339Z,4.97
2023-05-14T04:25:46.751Z,4.96
2023-05-14T04:26:48.200Z,4.97
2023-05-14T04:27:49.598Z,4.98
2023-05-14T04:28:51.038Z,4.96
2023-05-14T04:29:52.484Z,4.97
2023-05-14T04:30:53.914Z,4.97
2023-05-14T04:31:55.417Z,4.98
2023-05-14T04:32:56.928Z,4.98
2023-05-14T04:33:58.403Z,4.99
2023-05-14T04:34:59.841Z,5.00
2023-05-14T04:36:01.278Z,5.02
2023-05-14T04:37:02.762Z,5.03
2023-05-14T04:38:04.250Z,5.05
2023-05-14T04:39:05.667Z,5.07
2023-05-14T04:40:07.130Z,5.09
2023-05-14T04:41:08.571Z,5.12
2023-05-14T04:42:10.050Z,5.14
2023-05-14T04:43:11.675Z,5.16
2023-05-14T04:44:13.225Z,5.19
2023-05-14T04:45:14.684Z,5.22
2023-05-14T04:46:16.313Z,5.25
2023-05-14T04:47:17.832Z,5.28
2023-05-14T04:48:19.404Z,5.30
2023-05-14T04:49:20.928Z,5.35
2023-05-14T04:50:22.756Z,5.39
2023-05-14T04:51:24.392Z,5.42
2023-05-14T04:52:25.883Z,5.46
2023-05-14T04:53:27.361Z,5.48
2023-05-14T04:54:28.963Z,5.54
2023-05-14T04:55:30.552Z,5.58
2023-05-14T04:56:32.082Z,5.62
2023-05-14T04:57:33.537Z,5.67
2023-05-14T04:58:35.320Z,5.72
2023-05-14T04:59:36.878Z,5.78
2023-05-14T05:00:38.353Z,5.82
2023-05-14T05:01:40.046Z,5.87
2023-05-14T05:02:41.701Z,5.92
2023-05-14T05:03:43.274Z,5.97
2023-05-14T05:04:44.752Z,6.03
2023-05-14T05:05:46.221Z,6.09
2023-05-14T05:06:47.679Z,6.14
2023-05-14T05:07:49.215Z,6.20
2023-05-14T05:08:50.656Z,6.25
2023-05-14T05:09:52.077Z,6.31
2023-05-14T05:10:53.531Z,6.39
2023-05-14T05:11:54.960Z,6.44
2023-05-14T05:12:56.452Z,6.51
2023-05-14T05:13:57.893Z,6.57
2023-05-14T05:14:59.325Z,6.63
2023-05-14T05:16:01.025Z,6.71
2023-05-14T05:17:02.480Z,6.75
2023-05-14T05:18:03.991Z,6.83
2023-05-14T05:19:05.456Z,6.88
2023-05-14T05:20:06.911Z,6.97
2023-05-14T05:21:08.335Z,7.04
2023-05-14T05:22:09.735Z,7.10
2023-05-14T05:23:11.168Z,7.17
2023-05-14T05:24:12.582Z,7.24
2023-05-14T05:25:14.012Z,7.31
2023-05-14T05:26:15.472Z,7.38
2023-05-14T05:27:16.936Z,7.46
2023-05-14T05:28:18.413Z,7.53
2023-05-14T05:29:19.852Z,7.60
2023-05-14T05:30:21.344Z,7.67
2023-05-14T05:31:22.932Z,7.74
2023-05-14T05:32:24.442Z,7.82
2023-05-14T05:33:25.926Z,7.90
2023-05-14T05:34:27.357Z,7.97
2023-05-14T05:35:28.762Z,8.05
2023-05-14T05:36:30.215Z,8.14
2023-05-14T05:37:31.675Z,8.20
2023-05-14T05:38:33.093Z,8.29
2023-05-14T05:39:34.523Z,8.37
2023-05-14T05:40:36.024Z,8.44
2023-05-14T05:41:37.540Z,8.52
2023-05-14T05:42:38.962Z,8.59
2023-05-14T05:43:40.362Z,8.66
2023-05-14T05:44:41.792Z,8.74
2023-05-14T05:45:43.271Z,8.80
2023-05-14T05:46:44.769Z,8.89
2023-05-14T05:47:46.325Z,8.98
2023-05-14T05:48:47.835Z,9.05
2023-05-14T05:49:49.268Z,9.13
2023-05-14T05:50:50.690Z,9.20
2023-05-14T05:51:52.108Z,9.29
2023-05-14T05:52:53.554Z,9.38
2023-05-14T05:53:55.011Z,9.44
2023-05-14T05:54:56.428Z,9.52
2023-05-14T05:55:57.843Z,9.59
2023-05-14T05:56:59.271Z,9.67
2023-05-14T05:58:00.676Z,9.75
2023-05-14T05:59:02.136Z,9.82
2023-05-14T06:00:03.550Z,9.90
2023-05-14T06:02:06.611Z,10.04
2023-05-14T06:03:08.091Z,10.12
2023-05-14T06:04:09.590Z,10.19
2023-05-14T06:05:11.079Z,10.26
2023-05-14T06:06:12.574Z,10.34
2023-05-14T06:07:13.981Z,10.41
2023-05-14T06:08:15.367Z,10.49
2023-05-14T06:09:16.811Z,10.57
2023-05-14T06:10:18.242Z,10.63
2023-05-14T06:11:19.656Z,10.71
2023-05-14T06:12:21.076Z,10.78
2023-05-14T06:13:22.507Z,10.84
2023-05-14T06:14:23.965Z,10.92
2023-05-14T06:15:25.388Z,10.98
2023-05-14T06:16:26.850Z,11.06
2023-05-14T06:17:28.305Z,11.13
2023-05-14T06:18:29.783Z,11.18
2023-05-14T06:19:31.436Z,11.25
2023-05-14T06:20:32.832Z,11.31
2023-05-14T06:21:34.267Z,11.37
2023-05-14T06:22:35.710Z,11.43
2023-05-14T06:23:37.145Z,11.48
2023-05-14T06:24:38.600Z,11.56
2023-05-14T06:25:40.026Z,11.61
2023-05-14T06:26:41.448Z,11.68
2023-05-14T06:27:42.874Z,11.72
2023-05-14T06:28:44.336Z,11.78
2023-05-14T06:29:45.787Z,11.85
2023-05-14T06:30:47.188Z,11.90
2023-05-14T06:31:48.623Z,11.95
2023-05-14T06:32:50.111Z,12.00
2023-05-14T06:33:51.650Z,12.07
2023-05-14T06:34:53.096Z,12.10
2023-05-14T06:35:54.520Z,12.13
2023-05-14T06:36:55.937Z,12.18
2023-05-14T06:37:57.383Z,12.22
2023-05-14T06:38:58.812Z,12.27
2023-05-14T06:40:00.273Z,12.32
2023-05-14T06:41:01.716Z,12.35
2023-05-14T06:42:03.144Z,12.39
2023-05-14T06:43:04.634Z,12.42
2023-05-14T06:44:06.059Z,12.47
2023-05-14T06:45:07.510Z,12.49
2023-05-14T06:46:08.943Z,12.53
2023-05-14T06:47:10.408Z,12.56
2023-05-14T06:48:11.930Z,12.58
2023-05-14T06:49:13.453Z,12.63
2023-05-14T06:50:14.931Z,12.65
2023-05-14T06:51:16.398Z,12.69
2023-05-14T06:52:17.871Z,12.72
2023-05-14T06:53:19.343Z,12.74
2023-05-14T06:54:20.768Z,12.77
2023-05-14T06:55:22.265Z,12.79
2023-05-14T06:56:23.707Z,12.81
2023-05-14T06:57:25.252Z,12.84
2023-05-14T06:58:26.750Z,12.85
2023-05-14T06:59:28.212Z,12.87
2023-05-14T07:00:29.696Z,12.89
2023-05-14T07:01:31.213Z,12.91
2023-05-14T07:02:32.799Z,12.91
2023-05-14T07:03:34.308Z,12.93
2023-05-14T07:04:35.817Z,12.95
2023-05-14T07:05:37.320Z,12.97
2023-05-14T07:06:38.778Z,12.98
2023-05-14T07:07:40.280Z,12.98
2023-05-14T07:08:41.722Z,13.00
2023-05-14T07:09:43.200Z,13.00
2023-05-14T07:10:44.689Z,13.01
2023-05-14T07:11:46.163Z,13.02
2023-05-14T07:12:47.655Z,13.03
2023-05-14T07:13:49.134Z,13.04
2023-05-14T07:14:50.574Z,13.04
2023-05-14T07:15:52.038Z,13.03
2023-05-14T07:16:53.547Z,13.05
2023-05-14T07:17:55.140Z,13.06
2023-05-14T07:18:56.694Z,13.05
2023-05-14T07:19:58.215Z,13.07
2023-05-14T07:20:59.721Z,13.07
2023-05-14T07:22:01.211Z,13.07
2023-05-14T07:23:02.687Z,13.08
2023-05-14T07:24:04.121Z,13.08
2023-05-14T07:25:05.580Z,13.08
2023-05-14T07:26:07.041Z,13.08
2023-05-14T07:27:08.643Z,13.10
2023-05-14T07:28:10.134Z,13.10
2023-05-14T07:29:11.606Z,13.11
2023-05-14T07:30:13.082Z,13.13
2023-05-14T07:31:14.609Z,13.13
2023-05-14T07:32:16.084Z,13.13
2023-05-14T07:33:17.593Z,13.15
2023-05-14T07:34:19.042Z,13.16
2023-05-14T07:35:20.468Z,13.17
2023-05-14T07:36:21.874Z,13.18
2023-05-14T07:37:24.138Z,13.19
2023-05-14T07:38:25.794Z,13.21
2023-05-14T07:39:27.417Z,13.23
2023-05-14T07:40:28.825Z,13.24
2023-05-14T07:41:30.226Z,13.25
2023-05-14T07:42:36.613Z,13.28
2023-05-14T07:43:38.867Z,13.31
2023-05-14T07:44:40.312Z,13.32
2023-05-14T07:45:41.762Z,13.34
2023-05-14T07:46:43.210Z,13.36
2023-05-14T07:47:44.733Z,13.38
2023-05-14T07:48:46.258Z,13.41
2023-05-14T07:49:47.676Z,13.43
2023-05-14T07:50:49.081Z,13.45
2023-05-14T07:51:50.494Z,13.47
2023-05-14T07:52:51.944Z,13.49
2023-05-14T07:53:53.411Z,13.51
2023-05-14T07:54:54.861Z,13.54
2023-05-14T07:55:56.302Z,13.56
2023-05-14T07:56:57.702Z,13.57
2023-05-14T07:57:59.151Z,13.60
2023-05-14T07:59:00.626Z,13.63
2023-05-14T08:00:02.138Z,13.65
2023-05-14T08:01:03.578Z,13.67
2023-05-14T08:02:05.102Z,13.67
2023-05-14T08:03:06.727Z,13.67
2023-05-14T08:04:08.429Z,13.70
2023-05-14T08:05:09.930Z,13.71
2023-05-14T08:06:11.379Z,13.72
2023-05-14T08:07:12.928Z,13.72
2023-05-14T08:08:14.353Z,13.74
2023-05-14T08:09:15.811Z,13.76
2023-05-14T08:10:17.248Z,13.76
2023-05-14T08:11:18.813Z,13.78
2023-05-14T08:12:20.328Z,13.81
2023-05-14T08:13:21.757Z,13.84
2023-05-14T08:14:23.180Z,13.85
2023-05-14T08:15:27.080Z,13.87
2023-05-14T08:16:29.238Z,13.91
2023-05-14T08:17:30.741Z,13.93
2023-05-14T08:18:32.204Z,13.96
2023-05-14T08:19:33.654Z,13.99
2023-05-14T08:20:35.119Z,14.01
2023-05-14T08:21:36.560Z,14.05
2023-05-14T08:22:37.963Z,14.08
2023-05-14T08:23:39.390Z,14.10
2023-05-14T08:24:40.800Z,14.13
2023-05-14T08:25:42.421Z,14.16
2023-05-14T08:26:43.858Z,14.20
2023-05-14T08:27:45.289Z,14.24
2023-05-14T08:28:46.700Z,14.27
2023-05-14T08:29:48.118Z,14.32
2023-05-14T08:30:49.591Z,14.36
2023-05-14T08:31:51.012Z,14.40
2023-05-14T08:32:52.448Z,14.44
2023-05-14T08:33:53.921Z,14.48
2023-05-14T08:34:55.352Z,14.53
2023-05-14T08:35:56.785Z,14.58
2023-05-14T08:36:58.192Z,14.63
2023-05-14T08:37:59.625Z,14.66
2023-05-14T08:39:01.045Z,14.71
2023-05-14T08:40:02.439Z,14.76
2023-05-14T08:41:03.939Z,14.80
2023-05-14T08:42:05.354Z,14.84
2023-05-14T08:43:06.764Z,14.88
2023-05-14T08:44:08.190Z,14.92
2023-05-14T08:45:09.591Z,14.95
2023-05-14T08:46:11.025Z,14.99
2023-05-14T08:47:12.490Z,15.03
2023-05-14T08:48:14.002Z,15.08
2023-05-14T08:49:15.469Z,15.11
2023-05-14T08:50:16.878Z,15.14
2023-05-14T08:51:18.290Z,15.19
2023-05-14T08:52:19.737Z,15.22
2023-05-14T08:53:21.177Z,15.27
2023-05-14T08:54:22.666Z,15.30
2023-05-14T08:55:24.158Z,15.33
2023-05-14T08:56:25.606Z,15.36
2023-05-14T08:57:27.105Z,15.38
2023-05-14T08:58:28.543Z,15.42
2023-05-14T08:59:29.960Z,15.44
2023-05-14T09:00:31.408Z,15.47
2023-05-14T09:01:32.865Z,15.49
2023-05-14T09:02:34.413Z,15.51
2023-05-14T09:03:35.879Z,15.56
2023-05-14T09:04:37.310Z,15.57
2023-05-14T09:05:38.744Z,15.61
2023-05-14T09:06:40.164Z,15.64
2023-05-14T09:07:41.757Z,15.66
2023-05-14T09:08:43.180Z,15.71
2023-05-14T09:09:44.630Z,15.74
2023-05-14T09:10:46.069Z,15.78
2023-05-14T09:11:47.530Z,15.84
2023-05-14T09:12:48.992Z,15.88
2023-05-14T09:13:50.412Z,15.94
2023-05-14T09:14:51.877Z,16.00
2023-05-14T09:15:53.332Z,16.05
2023-05-14T09:16:54.826Z,16.11
2023-05-14T09:17:56.303Z,16.17
2023-05-14T09:18:57.766Z,16.22
2023-05-14T09:19:59.270Z,16.28
2023-05-14T09:21:00.696Z,16.33
2023-05-14T09:22:02.105Z,16.39
2023-05-14T09:23:03.552Z,16.45
2023-05-14T09:24:04.966Z,16.50
2023-05-14T09:25:06.400Z,16.55
2023-05-14T09:26:07.802Z,16.62
2023-05-14T09:27:09.222Z,16.66
2023-05-14T09:28:10.622Z,16.71
2023-05-14T09:29:12.045Z,16.75
2023-05-14T09:30:13.498Z,16.80
2023-05-14T09:31:14.951Z,16.85
2023-05-14T09:32:16.374Z,16.88
2023-05-14T09:33:17.798Z,16.92
2023-05-14T09:34:19.192Z,16.95
2023-05-14T09:35:20.671Z,17.00
2023-05-14T09:36:22.074Z,17.02
2023-05-14T09:37:23.465Z,17.05
2023-05-14T09:38:24.869Z,17.07
2023-05-14T09:39:26.278Z,17.09
2023-05-14T09:40:27.958Z,17.11
2023-05-14T09:41:29.742Z,17.13
2023-05-14T09:42:31.142Z,17.14
2023-05-14T09:43:32.562Z,17.15
2023-05-14T09:44:34.030Z,17.16
2023-05-14T09:45:35.522Z,17.17
2023-05-14T09:46:36.982Z,17.18
2023-05-14T09:47:38.544Z,17.18
2023-05-14T09:48:40.173Z,17.19
2023-05-14T09:49:41.645Z,17.20
2023-05-14T09:50:43.125Z,17.19
2023-05-14T09:51:44.567Z,17.21
2023-05-14T09:52:46.004Z,17.20
2023-05-14T09:53:47.464Z,17.20
2023-05-14T09:54:48.867Z,17.19
2023-05-14T09:55:50.345Z,17.19
2023-05-14T09:56:52.579Z,17.19
2023-05-14T09:57:55.323Z,17.19
2023-05-14T09:58:56.760Z,17.19
2023-05-14T09:59:58.170Z,17.20
2023-05-14T10:00:59.618Z,17.20
2023-05-14T10:02:01.098Z,17.21
2023-05-14T10:03:02.520Z,17.22
2023-05-14T10:04:04.007Z,17.24
2023-05-14T10:05:05.463Z,17.25
2023-05-14T10:06:06.941Z,17.28
2023-05-14T10:07:08.852Z,17.29
2023-05-14T10:08:11.064Z,17.32
2023-05-14T10:09:12.509Z,17.34
2023-05-14T10:10:13.938Z,17.38
2023-05-14T10:11:15.400Z,17.41
2023-05-14T10:12:16.800Z,17.44
2023-05-14T10:13:18.222Z,17.47
2023-05-14T10:14:19.670Z,17.49
2023-05-14T10:15:21.116Z,17.54
2023-05-14T10:16:22.605Z,17.59
2023-05-14T10:17:24.028Z,17.62
2023-05-14T10:18:25.498Z,17.66
2023-05-14T10:19:26.946Z,17.70
2023-05-14T10:20:28.431Z,17.74
2023-05-14T10:21:29.883Z,17.79
2023-05-14T10:22:31.308Z,17.84
2023-05-14T10:23:32.715Z,17.90
2023-05-14T10:24:34.146Z,17.95
2023-05-14T10:25:35.563Z,18.01
2023-05-14T10:26:37.023Z,18.08
2023-05-14T10:27:38.457Z,18.15
2023-05-14T10:28:39.883Z,18.21
2023-05-14T10:29:41.319Z,18.28
2023-05-14T10:30:42.745Z,18.33
2023-05-14T10:31:44.359Z,18.39
2023-05-14T10:32:45.923Z,18.44
2023-05-14T10:33:47.343Z,18.49
2023-05-14T10:34:49.251Z,18.54
2023-05-14T10:35:50.684Z,18.61
2023-05-14T10:36:52.099Z,18.65
2023-05-14T10:37:53.541Z,18.69
2023-05-14T10:38:54.959Z,18.73
2023-05-14T10:39:56.404Z,18.77
2023-05-14T10:40:57.807Z,18.80
2023-05-14T10:41:59.244Z,18.84
2023-05-14T10:43:00.648Z,18.86
2023-05-14T10:44:02.066Z,18.89
2023-05-14T10:45:03.510Z,18.92
2023-05-14T10:46:04.985Z,18.95
2023-05-14T10:47:06.506Z,18.96
2023-05-14T10:48:07.913Z,18.98
2023-05-14T10:49:09.326Z,19.01
2023-05-14T10:50:10.748Z,19.01
2023-05-14T10:51:12.295Z,19.03
2023-05-14T10:52:13.845Z,19.03
2023-05-14T10:53:15.345Z,19.03
2023-05-14T10:54:16.750Z,19.03
2023-05-14T10:55:18.187Z,19.03
2023-05-14T10:56:19.618Z,19.01
2023-05-14T10:57:21.043Z,19.01
2023-05-14T10:58:22.454Z,18.99
2023-05-14T10:59:23.919Z,18.97
2023-05-14T11:00:25.545Z,18.96
2023-05-14T11:01:27.164Z,18.94
2023-05-14T11:02:28.624Z,18.92
2023-05-14T11:03:30.054Z,18.91
2023-05-14T11:04:31.512Z,18.88
2023-05-14T11:05:33.027Z,18.86
2023-05-14T11:06:34.458Z,18.83
2023-05-14T11:07:35.878Z,18.80
2023-05-14T11:08:38.555Z,18.78
2023-05-14T11:09:39.971Z,18.75
2023-05-14T11:10:41.386Z,18.70
2023-05-14T11:11:42.821Z,18.69
2023-05-14T11:12:44.286Z,18.65
2023-05-14T11:13:45.728Z,18.62
2023-05-14T11:14:47.160Z,18.60
2023-05-14T11:15:48.552Z,18.54
2023-05-14T11:16:50.062Z,18.52
2023-05-14T11:17:51.588Z,18.50
2023-05-14T11:18:53.077Z,18.45
2023-05-14T11:19:54.564Z,18.42
2023-05-14T11:20:55.975Z,18.39
2023-05-14T11:21:57.389Z,18.36
2023-05-14T11:22:58.821Z,18.33
2023-05-14T11:24:00.237Z,18.29
2023-05-14T11:25:01.683Z,18.26
2023-05-14T11:26:03.238Z,18.23
2023-05-14T11:27:04.751Z,18.20
2023-05-14T11:28:06.188Z,18.18
2023-05-14T11:29:07.657Z,18.13
2023-05-14T11:30:09.105Z,18.10
2023-05-14T11:31:10.597Z,18.07
2023-05-14T11:32:12.118Z,18.04
2023-05-14T11:33:13.609Z,18.03
2023-05-14T11:34:15.094Z,17.99
2023-05-14T11:35:16.548Z,17.97
2023-05-14T11:36:18.389Z,17.94
2023-05-14T11:37:19.809Z,17.92
2023-05-14T11:38:21.283Z,17.90
2023-05-14T11:39:22.703Z,17.86
2023-05-14T11:40:24.362Z,17.84
2023-05-14T11:41:26.011Z,17.82
2023-05-14T11:42:27.456Z,17.80
2023-05-14T11:43:28.874Z,17.78
2023-05-14T11:44:31.727Z,17.76
2023-05-14T11:45:33.149Z,17.74
2023-05-14T11:46:34.719Z,17.73
2023-05-14T11:47:36.215Z,17.72
2023-05-14T11:48:37.700Z,17.70
2023-05-14T11:49:39.113Z,17.68
2023-05-14T11:50:40.558Z,17.67
2023-05-14T11:51:42.013Z,17.66
2023-05-14T11:52:43.428Z,17.65
2023-05-14T11:53:44.845Z,17.64
2023-05-14T11:54:46.268Z,17.63
2023-05-14T11:55:47.661Z,17.63
2023-05-14T11:56:49.143Z,17.62
2023-05-14T11:57:50.575Z,17.62
2023-05-14T11:58:51.996Z,17.62
2023-05-14T11:59:53.418Z,17.62
2023-05-14T12:00:54.823Z,17.62
2023-05-14T12:01:56.259Z,17.63
2023-05-14T12:02:57.851Z,17.62
2023-05-14T12:03:59.432Z,17.63
2023-05-14T12:05:00.948Z,17.62
2023-05-14T12:06:02.381Z,17.62
2023-05-14T12:07:03.825Z,17.62
2023-05-14T12:08:05.284Z,17.62
2023-05-14T12:09:06.688Z,17.62
2023-05-14T12:10:08.101Z,17.61
2023-05-14T12:11:09.524Z,17.61
2023-05-14T12:12:10.958Z,17.61
2023-05-14T12:13:12.359Z,17.61
2023-05-14T12:14:13.793Z,17.61
2023-05-14T12:15:15.225Z,17.63
2023-05-14T12:16:16.785Z,17.62
2023-05-14T12:17:18.239Z,17.63
2023-05-14T12:18:26.182Z,17.62
2023-05-14T12:19:27.699Z,17.64
2023-05-14T12:20:29.116Z,17.63
2023-05-14T12:21:30.561Z,17.64
2023-05-14T12:22:31.964Z,17.64
2023-05-14T12:23:33.424Z,17.62
2023-05-14T12:24:34.832Z,17.63
2023-05-14T12:25:36.217Z,17.64
2023-05-14T12:26:37.683Z,17.65
2023-05-14T12:27:39.128Z,17.65
2023-05-14T12:28:40.533Z,17.67
2023-05-14T12:29:41.972Z,17.67
2023-05-14T12:30:43.385Z,17.69
2023-05-14T12:31:44.892Z,17.69
2023-05-14T12:32:46.460Z,17.70
2023-05-14T12:33:47.929Z,17.71
2023-05-14T12:34:49.346Z,17.72
2023-05-14T12:35:50.762Z,17.72
2023-05-14T12:36:52.191Z,17.74
2023-05-14T12:37:53.602Z,17.76
2023-05-14T12:38:55.010Z,17.77
2023-05-14T12:39:56.458Z,17.77
2023-05-14T12:40:57.888Z,17.79
2023-05-14T12:41:59.305Z,17.80
2023-05-14T12:43:00.742Z,17.81
2023-05-14T12:44:02.165Z,17.82
2023-05-14T12:45:03.584Z,17.84
2023-05-14T12:46:05.062Z,17.84
2023-05-14T12:47:06.524Z,17.85
2023-05-14T12:48:08.237Z,17.86
2023-05-14T12:49:09.678Z,17.88
2023-05-14T12:50:11.093Z,17.89
2023-05-14T12:51:12.517Z,17.90
2023-05-14T12:53:18.256Z,17.93
2023-05-14T12:54:19.811Z,17.93
2023-05-14T12:55:21.260Z,17.94
2023-05-14T12:56:22.690Z,17.94
2023-05-14T12:57:24.317Z,17.94
2023-05-14T12:58:25.732Z,17.94
2023-05-14T12:59:27.181Z,17.93
2023-05-14T13:00:28.595Z,17.92
2023-05-14T13:01:30.088Z,17.91
2023-05-14T13:02:31.543Z,17.90
2023-05-14T13:03:32.952Z,17.89
2023-05-14T13:04:34.482Z,17.89
2023-05-14T13:05:36.024Z,17.88
2023-05-14T13:06:37.429Z,17.86
2023-05-14T13:07:38.959Z,17.85
2023-05-14T13:08:42.096Z,17.83
2023-05-14T13:09:44.134Z,17.81
2023-05-14T13:10:45.554Z,17.81
2023-05-14T13:11:47.011Z,17.79
2023-05-14T13:12:48.479Z,17.78
2023-05-14T13:13:49.887Z,17.76
2023-05-14T13:14:51.335Z,17.73
2023-05-14T13:15:52.722Z,17.73
2023-05-14T13:16:54.203Z,17.70
2023-05-14T13:17:55.741Z,17.69
2023-05-14T13:18:57.281Z,17.67
2023-05-14T13:19:58.716Z,17.66
2023-05-14T13:21:00.155Z,17.64
2023-05-14T13:22:01.589Z,17.64
2023-05-14T13:23:03.069Z,17.61
2023-05-14T13:24:04.534Z,17.60
2023-05-14T13:25:05.975Z,17.57
2023-05-14T13:26:07.427Z,17.56
2023-05-14T13:27:08.837Z,17.54